sensor_id;sensor_type;location;lat;lon;timestamp;pressure;altitude;pressure_sealevel;temperature;humidity
9289;BME280;4683;50.864;12.086;2023-02-13T00:01:27;101303.38;;;8.50;100.00
9289;BME280;4683;50.864;12.086;2023-02-13T00:03:55;101302.63;;;8.48;100.00
9289;BME280;4683;50.864;12.086;2023-02-13T00:06:24;101301.19;;;8.44;100.00
9289;BME280;4683;50.864;12.086;2023-02-13T00:08:54;101300.22;;;8.45;100.00
9289;BME280;4683;50.864;12.086;2023-02-13T00:11:22;101295.91;;;8.44;100.00
9289;BME280;4683;50.864;12.086;2023-02-13T00:13:50;101289.81;;;8.43;100.00
9289;BME280;4683;50.864;12.086;2023-02-13T00:16:20;101294.25;;;8.43;100.00
9289;BME280;4683;50.864;12.086;2023-02-13T00:18:49;101292.56;;;8.42;100.00
9289;BME280;4683;50.864;12.086;2023-02-13T00:21:17;101292.66;;;8.40;100.00
9289;BME280;4683;50.864;12.086;2023-02-13T00:23:45;101289.19;;;8.39;100.00
9289;BME280;4683;50.864;12.086;2023-02-13T00:26:16;101289.19;;;8.39;100.00
9289;BME280;4683;50.864;12.086;2023-02-13T00:28:45;101292.97;;;8.35;100.00
9289;BME280;4683;50.864;12.086;2023-02-13T00:31:20;101288.16;;;8.29;100.00
9289;BME280;4683;50.864;12.086;2023-02-13T00:33:50;101285.03;;;8.24;100.00
9289;BME280;4683;50.864;12.086;2023-02-13T00:36:20;101279.97;;;8.21;100.00
9289;BME280;4683;50.864;12.086;2023-02-13T00:38:49;101283.78;;;8.17;100.00
9289;BME280;4683;50.864;12.086;2023-02-13T00:41:17;101281.59;;;8.11;100.00
9289;BME280;4683;50.864;12.086;2023-02-13T00:43:46;101287.16;;;8.19;100.00
9289;BME280;4683;50.864;12.086;2023-02-13T00:46:16;101288.81;;;8.20;100.00
9289;BME280;4683;50.864;12.086;2023-02-13T00:48:46;101285.97;;;8.23;100.00
9289;BME280;4683;50.864;12.086;2023-02-13T00:51:14;101283.97;;;8.27;100.00
9289;BME280;4683;50.864;12.086;2023-02-13T00:53:43;101286.94;;;8.22;100.00
9289;BME280;4683;50.864;12.086;2023-02-13T00:56:48;101287.28;;;8.18;100.00
9289;BME280;4683;50.864;12.086;2023-02-13T00:59:16;101290.06;;;8.27;100.00
9289;BME280;4683;50.864;12.086;2023-02-13T01:01:44;101285.53;;;8.29;100.00
9289;BME280;4683;50.864;12.086;2023-02-13T01:04:14;101296.56;;;8.34;100.00
9289;BME280;4683;50.864;12.086;2023-02-13T01:06:42;101287.72;;;8.35;100.00
9289;BME280;4683;50.864;12.086;2023-02-13T01:09:11;101290.34;;;8.35;100.00
9289;BME280;4683;50.864;12.086;2023-02-13T01:11:39;101295.41;;;8.38;100.00
9289;BME280;4683;50.864;12.086;2023-02-13T01:14:07;101297.34;;;8.36;100.00
9289;BME280;4683;50.864;12.086;2023-02-13T01:16:36;101293.22;;;8.32;100.00
9289;BME280;4683;50.864;12.086;2023-02-13T01:19:04;101290.78;;;8.29;100.00
9289;BME280;4683;50.864;12.086;2023-02-13T01:21:34;101287.44;;;8.27;100.00
9289;BME280;4683;50.864;12.086;2023-02-13T01:24:05;101285.16;;;8.23;100.00
9289;BME280;4683;50.864;12.086;2023-02-13T01:26:33;101280.94;;;8.20;100.00
9289;BME280;4683;50.864;12.086;2023-02-13T01:29:41;101283.59;;;8.07;100.00
9289;BME280;4683;50.864;12.086;2023-02-13T01:32:09;101284.34;;;8.09;100.00
9289;BME280;4683;50.864;12.086;2023-02-13T01:34:38;101284.03;;;8.14;100.00
9289;BME280;4683;50.864;12.086;2023-02-13T01:37:07;101281.59;;;8.11;100.00
9289;BME280;4683;50.864;12.086;2023-02-13T01:39:36;101278.53;;;8.17;100.00
9289;BME280;4683;50.864;12.086;2023-02-13T01:42:11;101278.75;;;8.14;100.00
9289;BME280;4683;50.864;12.086;2023-02-13T01:45:01;101285.69;;;7.66;100.00
9289;BME280;4683;50.864;12.086;2023-02-13T01:47:38;101282.41;;;7.62;100.00
9289;BME280;4683;50.864;12.086;2023-02-13T01:50:12;101278.75;;;7.65;100.00
9289;BME280;4683;50.864;12.086;2023-02-13T01:52:47;101282.53;;;7.60;100.00
9289;BME280;4683;50.864;12.086;2023-02-13T01:55:17;101271.50;;;7.55;100.00
9289;BME280;4683;50.864;12.086;2023-02-13T01:57:51;101269.09;;;7.65;100.00
9289;BME280;4683;50.864;12.086;2023-02-13T02:00:22;101266.44;;;7.65;100.00
9289;BME280;4683;50.864;12.086;2023-02-13T02:02:54;101260.88;;;7.57;100.00
9289;BME280;4683;50.864;12.086;2023-02-13T02:05:27;101264.13;;;7.73;100.00
9289;BME280;4683;50.864;12.086;2023-02-13T02:08:00;101256.13;;;7.87;100.00
9289;BME280;4683;50.864;12.086;2023-02-13T02:10:30;101255.91;;;7.91;100.00
9289;BME280;4683;50.864;12.086;2023-02-13T02:13:05;101265.16;;;7.83;100.00
9289;BME280;4683;50.864;12.086;2023-02-13T02:15:35;101258.38;;;7.55;100.00
9289;BME280;4683;50.864;12.086;2023-02-13T02:18:08;101261.00;;;7.43;100.00
9289;BME280;4683;50.864;12.086;2023-02-13T02:21:21;101248.72;;;7.30;100.00
9289;BME280;4683;50.864;12.086;2023-02-13T02:24:28;101254.00;;;7.18;100.00
9289;BME280;4683;50.864;12.086;2023-02-13T02:27:34;101254.91;;;7.29;100.00
9289;BME280;4683;50.864;12.086;2023-02-13T02:33:37;101248.81;;;7.16;100.00
9289;BME280;4683;50.864;12.086;2023-02-13T02:36:24;101255.97;;;7.27;100.00
9289;BME280;4683;50.864;12.086;2023-02-13T02:39:07;101257.44;;;7.44;100.00
9289;BME280;4683;50.864;12.086;2023-02-13T02:41:53;101250.91;;;7.62;100.00
9289;BME280;4683;50.864;12.086;2023-02-13T02:44:41;101257.41;;;7.69;100.00
9289;BME280;4683;50.864;12.086;2023-02-13T02:47:20;101246.16;;;7.67;100.00
9289;BME280;4683;50.864;12.086;2023-02-13T02:50:25;101250.75;;;7.76;100.00
9289;BME280;4683;50.864;12.086;2023-02-13T02:53:06;101238.06;;;7.83;100.00
9289;BME280;4683;50.864;12.086;2023-02-13T02:55:41;101243.94;;;7.86;100.00
9289;BME280;4683;50.864;12.086;2023-02-13T02:58:17;101241.06;;;7.89;100.00
9289;BME280;4683;50.864;12.086;2023-02-13T03:01:06;101243.50;;;7.93;100.00
9289;BME280;4683;50.864;12.086;2023-02-13T03:03:56;101238.75;;;7.98;100.00
9289;BME280;4683;50.864;12.086;2023-02-13T03:06:48;101234.22;;;8.00;100.00
9289;BME280;4683;50.864;12.086;2023-02-13T03:09:24;101243.03;;;7.99;100.00
9289;BME280;4683;50.864;12.086;2023-02-13T03:12:16;101236.44;;;7.93;100.00
9289;BME280;4683;50.864;12.086;2023-02-13T03:15:05;101236.38;;;7.82;100.00
9289;BME280;4683;50.864;12.086;2023-02-13T03:17:33;101234.31;;;7.61;100.00
9289;BME280;4683;50.864;12.086;2023-02-13T03:20:31;101229.94;;;7.36;100.00
9289;BME280;4683;50.864;12.086;2023-02-13T03:23:27;101239.91;;;7.31;100.00
9289;BME280;4683;50.864;12.086;2023-02-13T03:26:29;101247.56;;;7.22;100.00
9289;BME280;4683;50.864;12.086;2023-02-13T03:29:22;101247.78;;;7.19;100.00
9289;BME280;4683;50.864;12.086;2023-02-13T05:42:05;101267.47;;;6.19;100.00
9289;BME280;4683;50.864;12.086;2023-02-13T05:44:34;101261.63;;;6.28;100.00
9289;BME280;4683;50.864;12.086;2023-02-13T05:47:02;101267.88;;;6.26;100.00
9289;BME280;4683;50.864;12.086;2023-02-13T05:49:31;101268.34;;;6.32;100.00
9289;BME280;4683;50.864;12.086;2023-02-13T05:51:58;101281.09;;;6.24;100.00
9289;BME280;4683;50.864;12.086;2023-02-13T05:54:27;101272.28;;;6.25;100.00
9289;BME280;4683;50.864;12.086;2023-02-13T05:56:55;101270.81;;;6.21;100.00
9289;BME280;4683;50.864;12.086;2023-02-13T05:59:25;101278.66;;;6.21;100.00
9289;BME280;4683;50.864;12.086;2023-02-13T06:01:53;101274.13;;;6.10;100.00
9289;BME280;4683;50.864;12.086;2023-02-13T06:04:21;101277.44;;;6.00;100.00
9289;BME280;4683;50.864;12.086;2023-02-13T06:06:49;101280.97;;;5.99;100.00
9289;BME280;4683;50.864;12.086;2023-02-13T06:09:17;101277.97;;;5.91;100.00
9289;BME280;4683;50.864;12.086;2023-02-13T06:11:45;101286.47;;;5.80;100.00
9289;BME280;4683;50.864;12.086;2023-02-13T06:14:14;101277.63;;;5.68;100.00
9289;BME280;4683;50.864;12.086;2023-02-13T06:16:43;101284.88;;;5.63;100.00
9289;BME280;4683;50.864;12.086;2023-02-13T06:19:11;101294.50;;;5.63;100.00
9289;BME280;4683;50.864;12.086;2023-02-13T06:21:39;101295.06;;;5.68;100.00
9289;BME280;4683;50.864;12.086;2023-02-13T06:24:08;101299.00;;;5.46;100.00
9289;BME280;4683;50.864;12.086;2023-02-13T06:26:36;101297.97;;;5.49;100.00
9289;BME280;4683;50.864;12.086;2023-02-13T06:29:04;101291.81;;;5.50;100.00
9289;BME280;4683;50.864;12.086;2023-02-13T06:31:32;101298.72;;;5.37;100.00
9289;BME280;4683;50.864;12.086;2023-02-13T06:34:02;101295.88;;;5.25;100.00
9289;BME280;4683;50.864;12.086;2023-02-13T06:36:30;101306.34;;;5.25;100.00
9289;BME280;4683;50.864;12.086;2023-02-13T06:38:58;101305.88;;;5.19;100.00
9289;BME280;4683;50.864;12.086;2023-02-13T06:41:26;101301.66;;;5.16;100.00
9289;BME280;4683;50.864;12.086;2023-02-13T06:43:55;101293.34;;;5.09;100.00
9289;BME280;4683;50.864;12.086;2023-02-13T06:46:23;101309.09;;;5.08;100.00
9289;BME280;4683;50.864;12.086;2023-02-13T06:48:51;101307.44;;;5.07;100.00
9289;BME280;4683;50.864;12.086;2023-02-13T06:51:20;101301.47;;;5.05;100.00
9289;BME280;4683;50.864;12.086;2023-02-13T06:53:53;101304.06;;;5.05;100.00
9289;BME280;4683;50.864;12.086;2023-02-13T06:56:22;101311.72;;;5.08;100.00
9289;BME280;4683;50.864;12.086;2023-02-13T06:58:51;101308.47;;;5.04;100.00
9289;BME280;4683;50.864;12.086;2023-02-13T07:01:20;101313.56;;;4.92;100.00
9289;BME280;4683;50.864;12.086;2023-02-13T07:03:47;101315.25;;;4.93;100.00
9289;BME280;4683;50.864;12.086;2023-02-13T07:06:37;101318.53;;;4.80;100.00
9289;BME280;4683;50.864;12.086;2023-02-13T07:09:05;101311.22;;;4.71;100.00
9289;BME280;4683;50.864;12.086;2023-02-13T07:11:33;101321.28;;;4.63;100.00
9289;BME280;4683;50.864;12.086;2023-02-13T07:14:03;101314.38;;;4.62;100.00
9289;BME280;4683;50.864;12.086;2023-02-13T07:16:31;101310.81;;;4.63;100.00
9289;BME280;4683;50.864;12.086;2023-02-13T07:18:59;101314.63;;;4.57;100.00
9289;BME280;4683;50.864;12.086;2023-02-13T07:21:28;101316.41;;;4.57;100.00
9289;BME280;4683;50.864;12.086;2023-02-13T07:23:58;101314.81;;;4.54;100.00
9289;BME280;4683;50.864;12.086;2023-02-13T07:26:26;101314.72;;;4.56;100.00
9289;BME280;4683;50.864;12.086;2023-02-13T07:28:54;101317.81;;;4.63;100.00
9289;BME280;4683;50.864;12.086;2023-02-13T07:31:22;101316.81;;;4.65;100.00
9289;BME280;4683;50.864;12.086;2023-02-13T07:33:50;101324.56;;;4.67;100.00
9289;BME280;4683;50.864;12.086;2023-02-13T07:36:19;101316.13;;;4.62;100.00
9289;BME280;4683;50.864;12.086;2023-02-13T07:38:47;101323.13;;;4.61;100.00
9289;BME280;4683;50.864;12.086;2023-02-13T07:41:16;101326.09;;;4.55;100.00
9289;BME280;4683;50.864;12.086;2023-02-13T07:43:45;101328.28;;;4.47;100.00
9289;BME280;4683;50.864;12.086;2023-02-13T07:46:13;101324.06;;;4.44;100.00
9289;BME280;4683;50.864;12.086;2023-02-13T07:48:41;101320.88;;;4.39;100.00
9289;BME280;4683;50.864;12.086;2023-02-13T07:51:10;101318.72;;;4.31;100.00
9289;BME280;4683;50.864;12.086;2023-02-13T09:53:20;101373.13;;;7.15;100.00
9289;BME280;4683;50.864;12.086;2023-02-13T09:55:59;101380.00;;;7.03;100.00
9289;BME280;4683;50.864;12.086;2023-02-13T09:58:41;101376.78;;;6.85;100.00
9289;BME280;4683;50.864;12.086;2023-02-13T10:01:25;101368.97;;;6.71;100.00
9289;BME280;4683;50.864;12.086;2023-02-13T10:04:30;101370.63;;;6.86;100.00
9289;BME280;4683;50.864;12.086;2023-02-13T10:07:15;101371.88;;;7.21;100.00
9289;BME280;4683;50.864;12.086;2023-02-13T10:09:57;101371.81;;;7.48;100.00
9289;BME280;4683;50.864;12.086;2023-02-13T10:12:53;101368.25;;;7.87;100.00
9289;BME280;4683;50.864;12.086;2023-02-13T10:15:33;101380.34;;;7.64;100.00
9289;BME280;4683;50.864;12.086;2023-02-13T10:18:09;101362.44;;;7.31;100.00
9289;BME280;4683;50.864;12.086;2023-02-13T10:20:43;101364.78;;;7.08;100.00
9289;BME280;4683;50.864;12.086;2023-02-13T10:23:22;101362.28;;;6.80;100.00
9289;BME280;4683;50.864;12.086;2023-02-13T10:25:58;101364.63;;;6.84;100.00
9289;BME280;4683;50.864;12.086;2023-02-13T10:28:37;101363.03;;;7.09;100.00
9289;BME280;4683;50.864;12.086;2023-02-13T10:31:12;101366.97;;;7.42;100.00
9289;BME280;4683;50.864;12.086;2023-02-13T10:33:50;101360.56;;;7.58;100.00
9289;BME280;4683;50.864;12.086;2023-02-13T10:36:24;101353.03;;;7.92;100.00
9289;BME280;4683;50.864;12.086;2023-02-13T10:38:59;101362.44;;;8.20;100.00
9289;BME280;4683;50.864;12.086;2023-02-13T10:41:41;101360.75;;;8.19;100.00
9289;BME280;4683;50.864;12.086;2023-02-13T10:44:40;101360.59;;;7.71;100.00
9289;BME280;4683;50.864;12.086;2023-02-13T10:47:25;101351.13;;;7.43;100.00
9289;BME280;4683;50.864;12.086;2023-02-13T10:50:14;101347.53;;;7.31;100.00
9289;BME280;4683;50.864;12.086;2023-02-13T10:52:54;101336.56;;;7.12;100.00
9289;BME280;4683;50.864;12.086;2023-02-13T10:56:00;101340.97;;;7.11;100.00
9289;BME280;4683;50.864;12.086;2023-02-13T10:58:47;101324.44;;;7.62;100.00
9289;BME280;4683;50.864;12.086;2023-02-13T11:01:24;101327.13;;;7.99;100.00
9289;BME280;4683;50.864;12.086;2023-02-13T11:04:08;101323.03;;;7.95;100.00
9289;BME280;4683;50.864;12.086;2023-02-13T11:06:47;101326.22;;;8.00;100.00
9289;BME280;4683;50.864;12.086;2023-02-13T11:09:18;101324.75;;;8.32;100.00
9289;BME280;4683;50.864;12.086;2023-02-13T11:11:46;101327.28;;;8.47;100.00
9289;BME280;4683;50.864;12.086;2023-02-13T11:14:18;101327.81;;;8.26;100.00
9289;BME280;4683;50.864;12.086;2023-02-13T11:16:53;101323.28;;;8.41;100.00
9289;BME280;4683;50.864;12.086;2023-02-13T11:19:28;101320.94;;;8.49;100.00
9289;BME280;4683;50.864;12.086;2023-02-13T11:22:04;101315.50;;;8.39;100.00
9289;BME280;4683;50.864;12.086;2023-02-13T11:24:33;101312.59;;;8.19;100.00
9289;BME280;4683;50.864;12.086;2023-02-13T11:27:03;101313.09;;;8.36;100.00
9289;BME280;4683;50.864;12.086;2023-02-13T11:29:37;101306.78;;;8.39;100.00
9289;BME280;4683;50.864;12.086;2023-02-13T11:32:21;101317.88;;;8.19;100.00
9289;BME280;4683;50.864;12.086;2023-02-13T11:34:50;101311.81;;;8.29;100.00
9289;BME280;4683;50.864;12.086;2023-02-13T11:37:24;101307.53;;;8.28;100.00
9289;BME280;4683;50.864;12.086;2023-02-13T11:39:55;101313.38;;;8.45;100.00
9289;BME280;4683;50.864;12.086;2023-02-13T11:42:29;101317.41;;;8.37;100.00
9289;BME280;4683;50.864;12.086;2023-02-13T11:45:03;101318.00;;;8.04;100.00
9289;BME280;4683;50.864;12.086;2023-02-13T11:47:38;101316.44;;;7.76;100.00
9289;BME280;4683;50.864;12.086;2023-02-13T11:50:21;101314.69;;;7.77;100.00
9289;BME280;4683;50.864;12.086;2023-02-13T11:53:03;101309.19;;;7.93;100.00
9289;BME280;4683;50.864;12.086;2023-02-13T11:55:35;101309.84;;;8.20;100.00
9289;BME280;4683;50.864;12.086;2023-02-13T11:58:22;101308.69;;;8.24;100.00
9289;BME280;4683;50.864;12.086;2023-02-13T12:01:23;101294.38;;;7.53;100.00
9289;BME280;4683;50.864;12.086;2023-02-13T12:04:08;101288.31;;;7.27;100.00
9289;BME280;4683;50.864;12.086;2023-02-13T12:06:59;101293.56;;;7.15;100.00
9289;BME280;4683;50.864;12.086;2023-02-13T12:09:28;101278.19;;;7.08;100.00
9289;BME280;4683;50.864;12.086;2023-02-13T12:11:59;101289.94;;;7.03;100.00
9289;BME280;4683;50.864;12.086;2023-02-13T12:14:35;101274.94;;;6.92;100.00
9289;BME280;4683;50.864;12.086;2023-02-13T12:17:11;101276.50;;;6.95;100.00
9289;BME280;4683;50.864;12.086;2023-02-13T12:19:43;101275.03;;;6.91;100.00
9289;BME280;4683;50.864;12.086;2023-02-13T12:22:28;101282.56;;;6.82;100.00
9289;BME280;4683;50.864;12.086;2023-02-13T12:25:44;101272.69;;;6.73;100.00
9289;BME280;4683;50.864;12.086;2023-02-13T12:28:18;101274.63;;;6.97;100.00
9289;BME280;4683;50.864;12.086;2023-02-13T12:31:30;101281.06;;;7.18;100.00
9289;BME280;4683;50.864;12.086;2023-02-13T12:37:56;101273.94;;;7.46;100.00
9289;BME280;4683;50.864;12.086;2023-02-13T12:44:37;101282.06;;;7.92;100.00
9289;BME280;4683;50.864;12.086;2023-02-13T12:47:15;101280.44;;;8.15;100.00
9289;BME280;4683;50.864;12.086;2023-02-13T13:54:34;101225.88;;;7.82;100.00
9289;BME280;4683;50.864;12.086;2023-02-13T13:57:10;101223.81;;;7.98;100.00
9289;BME280;4683;50.864;12.086;2023-02-13T14:00:27;101224.38;;;7.91;100.00
9289;BME280;4683;50.864;12.086;2023-02-13T14:03:23;101224.94;;;8.07;100.00
9289;BME280;4683;50.864;12.086;2023-02-13T14:06:05;101218.59;;;8.22;100.00
9289;BME280;4683;50.864;12.086;2023-02-13T14:09:43;101216.84;;;8.10;100.00
9289;BME280;4683;50.864;12.086;2023-02-13T14:12:36;101214.00;;;8.13;100.00
9289;BME280;4683;50.864;12.086;2023-02-13T14:15:49;101216.88;;;8.21;100.00
9289;BME280;4683;50.864;12.086;2023-02-13T14:18:20;101214.31;;;8.32;100.00
9289;BME280;4683;50.864;12.086;2023-02-13T14:20:53;101214.00;;;8.61;100.00
9289;BME280;4683;50.864;12.086;2023-02-13T15:55:28;101171.69;;;8.16;100.00
9289;BME280;4683;50.864;12.086;2023-02-13T15:57:59;101172.03;;;8.11;100.00
9289;BME280;4683;50.864;12.086;2023-02-13T16:00:30;101167.91;;;8.20;100.00
9289;BME280;4683;50.864;12.086;2023-02-13T16:03:02;101168.97;;;8.18;100.00
9289;BME280;4683;50.864;12.086;2023-02-13T16:05:37;101164.19;;;7.99;100.00
9289;BME280;4683;50.864;12.086;2023-02-13T16:08:31;101164.19;;;7.99;100.00
9289;BME280;4683;50.864;12.086;2023-02-13T16:11:29;101161.56;;;7.99;100.00
9289;BME280;4683;50.864;12.086;2023-02-13T16:14:07;101154.53;;;7.99;100.00
9289;BME280;4683;50.864;12.086;2023-02-13T16:16:47;101160.06;;;7.83;100.00
9289;BME280;4683;50.864;12.086;2023-02-13T16:19:34;101156.34;;;7.62;100.00
9289;BME280;4683;50.864;12.086;2023-02-13T16:22:16;101149.38;;;7.50;100.00
9289;BME280;4683;50.864;12.086;2023-02-13T16:24:49;101140.75;;;7.48;100.00
9289;BME280;4683;50.864;12.086;2023-02-13T16:27:23;101139.63;;;7.26;100.00
9289;BME280;4683;50.864;12.086;2023-02-13T16:29:56;101143.84;;;7.16;100.00
9289;BME280;4683;50.864;12.086;2023-02-13T16:32:30;101144.88;;;7.26;100.00
9289;BME280;4683;50.864;12.086;2023-02-13T16:35:26;101153.69;;;7.25;100.00
9289;BME280;4683;50.864;12.086;2023-02-13T16:37:57;101151.59;;;7.30;100.00
9289;BME280;4683;50.864;12.086;2023-02-13T16:40:39;101150.25;;;7.25;100.00
9289;BME280;4683;50.864;12.086;2023-02-13T16:43:38;101159.19;;;7.22;100.00
9289;BME280;4683;50.864;12.086;2023-02-13T16:46:22;101160.53;;;7.15;100.00
9289;BME280;4683;50.864;12.086;2023-02-13T16:49:17;101166.75;;;7.01;100.00
9289;BME280;4683;50.864;12.086;2023-02-13T16:51:50;101170.63;;;6.96;100.00
9289;BME280;4683;50.864;12.086;2023-02-13T16:54:33;101169.56;;;6.85;100.00
9289;BME280;4683;50.864;12.086;2023-02-13T16:57:18;101171.75;;;6.66;100.00
9289;BME280;4683;50.864;12.086;2023-02-13T17:00:06;101174.66;;;6.49;100.00
9289;BME280;4683;50.864;12.086;2023-02-13T17:02:45;101176.41;;;6.35;100.00
9289;BME280;4683;50.864;12.086;2023-02-13T17:05:21;101171.78;;;6.26;100.00
9289;BME280;4683;50.864;12.086;2023-02-13T17:07:52;101181.72;;;6.21;100.00
9289;BME280;4683;50.864;12.086;2023-02-13T17:10:26;101181.00;;;6.19;100.00
9289;BME280;4683;50.864;12.086;2023-02-13T17:12:56;101178.56;;;6.16;100.00
9289;BME280;4683;50.864;12.086;2023-02-13T17:15:29;101187.00;;;6.07;100.00
9289;BME280;4683;50.864;12.086;2023-02-13T17:17:57;101191.16;;;5.97;100.00
9289;BME280;4683;50.864;12.086;2023-02-13T17:20:29;101182.75;;;5.92;100.00
9289;BME280;4683;50.864;12.086;2023-02-13T17:22:59;101188.16;;;5.89;100.00
9289;BME280;4683;50.864;12.086;2023-02-13T17:25:31;101193.56;;;5.85;100.00
9289;BME280;4683;50.864;12.086;2023-02-13T17:28:05;101197.72;;;5.75;100.00
9289;BME280;4683;50.864;12.086;2023-02-13T17:30:35;101193.47;;;5.60;100.00
9289;BME280;4683;50.864;12.086;2023-02-13T17:33:06;101204.78;;;5.46;100.00
9289;BME280;4683;50.864;12.086;2023-02-13T17:35:34;101200.97;;;5.38;100.00
9289;BME280;4683;50.864;12.086;2023-02-13T17:38:03;101202.19;;;5.32;100.00
9289;BME280;4683;50.864;12.086;2023-02-13T17:40:35;101196.84;;;5.19;100.00
9289;BME280;4683;50.864;12.086;2023-02-13T17:43:03;101197.31;;;5.12;100.00
9289;BME280;4683;50.864;12.086;2023-02-13T17:45:36;101203.84;;;5.04;100.00
9289;BME280;4683;50.864;12.086;2023-02-13T17:48:05;101204.19;;;4.98;100.00
9289;BME280;4683;50.864;12.086;2023-02-13T17:50:34;101208.13;;;4.91;100.00
9289;BME280;4683;50.864;12.086;2023-02-13T17:53:04;101209.31;;;4.86;100.00
9289;BME280;4683;50.864;12.086;2023-02-13T18:56:48;101177.09;;;4.41;100.00
9289;BME280;4683;50.864;12.086;2023-02-13T18:59:16;101182.13;;;4.44;100.00
9289;BME280;4683;50.864;12.086;2023-02-13T19:01:45;101181.03;;;4.48;100.00
9289;BME280;4683;50.864;12.086;2023-02-13T19:04:14;101178.94;;;4.54;100.00
9289;BME280;4683;50.864;12.086;2023-02-13T19:06:43;101178.66;;;4.59;100.00
9289;BME280;4683;50.864;12.086;2023-02-13T19:09:11;101183.50;;;4.65;100.00
9289;BME280;4683;50.864;12.086;2023-02-13T19:11:40;101179.97;;;4.66;100.00
9289;BME280;4683;50.864;12.086;2023-02-13T19:14:12;101170.06;;;4.71;100.00
9289;BME280;4683;50.864;12.086;2023-02-13T19:16:41;101171.41;;;4.78;100.00
9289;BME280;4683;50.864;12.086;2023-02-13T19:19:10;101169.53;;;4.80;100.00
9289;BME280;4683;50.864;12.086;2023-02-13T19:21:39;101169.19;;;4.87;100.00
9289;BME280;4683;50.864;12.086;2023-02-13T19:24:11;101172.34;;;4.92;100.00
9289;BME280;4683;50.864;12.086;2023-02-13T19:26:41;101166.84;;;4.96;100.00
9289;BME280;4683;50.864;12.086;2023-02-13T19:29:11;101170.75;;;5.03;100.00
9289;BME280;4683;50.864;12.086;2023-02-13T19:31:39;101182.06;;;5.04;100.00
9289;BME280;4683;50.864;12.086;2023-02-13T19:34:08;101181.88;;;5.07;100.00
9289;BME280;4683;50.864;12.086;2023-02-13T19:36:36;101172.09;;;5.11;100.00
9289;BME280;4683;50.864;12.086;2023-02-13T19:39:05;101173.03;;;5.09;100.00
9289;BME280;4683;50.864;12.086;2023-02-13T19:41:34;101177.69;;;5.19;100.00
9289;BME280;4683;50.864;12.086;2023-02-13T19:44:02;101175.53;;;5.25;100.00
9289;BME280;4683;50.864;12.086;2023-02-13T19:46:32;101170.97;;;5.29;100.00
9289;BME280;4683;50.864;12.086;2023-02-13T19:49:00;101163.94;;;5.29;100.00
9289;BME280;4683;50.864;12.086;2023-02-13T19:51:30;101164.72;;;5.31;100.00
9289;BME280;4683;50.864;12.086;2023-02-13T19:54:01;101157.31;;;5.38;100.00
9289;BME280;4683;50.864;12.086;2023-02-13T21:56:13;101156.88;;;3.98;100.00
9289;BME280;4683;50.864;12.086;2023-02-13T21:58:43;101149.97;;;3.97;100.00
9289;BME280;4683;50.864;12.086;2023-02-13T22:01:15;101144.84;;;3.96;100.00
9289;BME280;4683;50.864;12.086;2023-02-13T22:03:45;101143.25;;;3.93;100.00
9289;BME280;4683;50.864;12.086;2023-02-13T22:06:15;101152.38;;;4.16;100.00
9289;BME280;4683;50.864;12.086;2023-02-13T22:08:45;101141.84;;;4.48;100.00
9289;BME280;4683;50.864;12.086;2023-02-13T22:11:16;101144.31;;;4.65;100.00
9289;BME280;4683;50.864;12.086;2023-02-13T22:13:45;101145.72;;;4.71;100.00
9289;BME280;4683;50.864;12.086;2023-02-13T22:16:14;101139.91;;;4.66;100.00
9289;BME280;4683;50.864;12.086;2023-02-13T22:18:44;101150.75;;;4.29;100.00
9289;BME280;4683;50.864;12.086;2023-02-13T22:21:17;101154.25;;;3.98;100.00
9289;BME280;4683;50.864;12.086;2023-02-13T22:23:47;101157.72;;;3.99;100.00
9289;BME280;4683;50.864;12.086;2023-02-13T22:26:19;101144.94;;;4.24;100.00
9289;BME280;4683;50.864;12.086;2023-02-13T22:28:48;101147.72;;;4.21;100.00
9289;BME280;4683;50.864;12.086;2023-02-13T22:31:18;101156.81;;;3.68;100.00
9289;BME280;4683;50.864;12.086;2023-02-13T22:33:46;101157.31;;;3.43;100.00
9289;BME280;4683;50.864;12.086;2023-02-13T22:36:16;101157.97;;;3.31;100.00
9289;BME280;4683;50.864;12.086;2023-02-13T22:38:48;101153.91;;;3.25;100.00
9289;BME280;4683;50.864;12.086;2023-02-13T22:41:21;101157.84;;;3.17;100.00
9289;BME280;4683;50.864;12.086;2023-02-13T22:43:51;101160.88;;;3.09;100.00
9289;BME280;4683;50.864;12.086;2023-02-13T22:46:21;101149.47;;;3.43;100.00
9289;BME280;4683;50.864;12.086;2023-02-13T22:48:50;101149.00;;;3.68;100.00
9289;BME280;4683;50.864;12.086;2023-02-13T22:51:21;101145.78;;;3.79;100.00
9289;BME280;4683;50.864;12.086;2023-02-13T22:53:52;101157.13;;;3.94;100.00
9289;BME280;4683;50.864;12.086;2023-02-13T22:56:22;101162.78;;;3.70;100.00
9289;BME280;4683;50.864;12.086;2023-02-13T22:58:51;101168.97;;;3.20;100.00
9289;BME280;4683;50.864;12.086;2023-02-13T23:01:22;101166.59;;;3.00;100.00
9289;BME280;4683;50.864;12.086;2023-02-13T23:03:51;101164.91;;;2.82;100.00
9289;BME280;4683;50.864;12.086;2023-02-13T23:06:20;101166.25;;;2.73;100.00
9289;BME280;4683;50.864;12.086;2023-02-13T23:08:51;101170.09;;;2.99;100.00
9289;BME280;4683;50.864;12.086;2023-02-13T23:11:25;101158.97;;;3.28;100.00
9289;BME280;4683;50.864;12.086;2023-02-13T23:14:12;101162.72;;;3.56;100.00
9289;BME280;4683;50.864;12.086;2023-02-13T23:16:41;101168.59;;;3.60;100.00
9289;BME280;4683;50.864;12.086;2023-02-13T23:19:27;101175.09;;;3.68;100.00
9289;BME280;4683;50.864;12.086;2023-02-13T23:21:57;101186.28;;;3.70;100.00
9289;BME280;4683;50.864;12.086;2023-02-13T23:24:26;101187.78;;;3.74;100.00
9289;BME280;4683;50.864;12.086;2023-02-13T23:26:56;101194.53;;;3.78;100.00
9289;BME280;4683;50.864;12.086;2023-02-13T23:29:24;101197.31;;;3.75;100.00
9289;BME280;4683;50.864;12.086;2023-02-13T23:31:53;101207.50;;;3.64;100.00
9289;BME280;4683;50.864;12.086;2023-02-13T23:34:21;101211.09;;;3.62;100.00
9289;BME280;4683;50.864;12.086;2023-02-13T23:36:51;101218.78;;;3.65;100.00
9289;BME280;4683;50.864;12.086;2023-02-13T23:39:19;101221.53;;;3.46;100.00
9289;BME280;4683;50.864;12.086;2023-02-13T23:41:49;101211.84;;;3.48;100.00